Time;durP1;ratioP1;P1;durP2;ratioP2;P2;SDS_P1;SDS_P2;PMS_P1;PMS_P2;Temp;Humidity;BMP_temperature;BMP_pressure;BME280_temperature;BME280_humidity;BME280_pressure;Samples;Min_cycle;Max_cycle;Signal;HPM_P1;HPM_P2
2022/05/13 00:02:10;;;;;;;1.95;0.85;;;20.50;69.60;;;;;;5108621;27;45247;-79
2022/05/13 00:04:38;;;;;;;1.40;0.73;;;20.40;69.60;;;;;;5106837;27;45294;-79
2022/05/13 00:07:05;;;;;;;1.50;0.85;;;20.40;69.70;;;;;;5104337;27;45306;-79
2022/05/13 00:12:14;;;;;;;1.05;0.90;;;20.40;69.60;;;;;;5093414;27;45220;-79
2022/05/13 00:14:44;;;;;;;0.80;0.70;;;20.40;69.50;;;;;;5104345;27;47387;-79
2022/05/13 00:17:11;;;;;;;1.38;0.82;;;20.40;69.50;;;;;;5106530;27;45232;-78
2022/05/13 00:19:38;;;;;;;1.45;0.70;;;20.40;69.50;;;;;;5106044;27;45279;-79
2022/05/13 00:22:05;;;;;;;2.83;0.82;;;20.40;69.50;;;;;;5106379;27;45221;-79
2022/05/13 00:24:32;;;;;;;1.17;0.70;;;20.40;69.20;;;;;;5102295;27;46019;-78
2022/05/13 00:26:59;;;;;;;1.83;0.85;;;20.40;69.20;;;;;;5112298;27;45235;-79
2022/05/13 00:29:27;;;;;;;1.73;0.77;;;20.40;69.20;;;;;;5106128;27;45314;-79
2022/05/13 00:31:55;;;;;;;1.60;0.70;;;20.40;69.10;;;;;;5105952;27;46777;-79
2022/05/13 00:34:23;;;;;;;1.13;0.68;;;20.40;68.90;;;;;;5105421;27;45437;-79
2022/05/13 00:36:50;;;;;;;2.15;0.95;;;20.50;68.70;;;;;;5107357;27;45166;-79
2022/05/13 00:39:16;;;;;;;1.10;0.57;;;20.50;68.80;;;;;;5104036;27;45498;-79
2022/05/13 00:41:43;;;;;;;2.40;0.90;;;20.50;68.60;;;;;;5110482;27;45219;-79
2022/05/13 00:44:10;;;;;;;0.90;0.70;;;20.50;68.60;;;;;;5108483;27;47189;-79
2022/05/13 00:46:37;;;;;;;1.10;0.70;;;20.50;68.50;;;;;;5105129;27;45630;-78
2022/05/13 00:49:10;;;;;;;1.20;0.68;;;20.50;68.60;;;;;;5109931;27;45286;-79
2022/05/13 00:51:39;;;;;;;0.65;0.60;;;20.50;68.50;;;;;;5107473;27;45306;-79
2022/05/13 00:54:11;;;;;;;1.50;0.70;;;20.40;68.50;;;;;;5105626;27;46424;-79
2022/05/13 00:56:42;;;;;;;0.65;0.55;;;20.40;69.70;;;;;;5105007;27;45226;-78
2022/05/13 00:59:11;;;;;;;0.95;0.52;;;20.40;68.50;;;;;;5102586;27;45176;-79
2022/05/13 01:01:38;;;;;;;1.98;0.90;;;20.40;68.50;;;;;;5106702;27;45322;-79
2022/05/13 01:04:10;;;;;;;2.03;0.70;;;20.40;68.50;;;;;;5103315;27;46185;-79
2022/05/13 01:06:38;;;;;;;1.38;0.63;;;20.40;68.20;;;;;;5112148;27;45157;-79
2022/05/13 01:09:05;;;;;;;1.05;0.63;;;20.40;68.40;;;;;;5105347;27;45231;-79
2022/05/13 01:11:34;;;;;;;0.75;0.50;;;20.40;68.50;;;;;;5109236;27;45582;-79
2022/05/13 01:14:05;;;;;;;0.88;0.63;;;20.40;68.40;;;;;;5106778;27;47924;-78
2022/05/13 01:18:04;;;;;;;1.00;0.57;;;20.40;68.40;;;;;;5109626;27;45306;-78
2022/05/13 01:19:20;;;;;;;1.45;0.52;;;20.40;68.10;;;;;;5098778;27;45435;-79
2022/05/13 01:21:49;;;;;;;0.98;0.50;;;20.40;68.10;;;;;;5110804;27;45536;-78
2022/05/13 01:24:16;;;;;;;0.57;0.45;;;20.40;68.00;;;;;;5109124;27;48158;-79
2022/05/13 01:26:44;;;;;;;3.03;0.60;;;20.40;68.00;;;;;;5107169;27;45289;-79
2022/05/13 01:29:11;;;;;;;2.67;0.75;;;20.40;68.00;;;;;;5108645;27;45173;-80
2022/05/13 01:31:40;;;;;;;1.50;0.57;;;20.40;67.70;;;;;;5110383;27;45441;-79
2022/05/13 01:34:09;;;;;;;2.25;0.85;;;20.40;67.70;;;;;;5110512;27;46144;-79
2022/05/13 01:36:39;;;;;;;1.90;0.73;;;20.50;67.80;;;;;;5105159;27;46262;-79
2022/05/13 01:39:08;;;;;;;1.95;0.60;;;20.40;67.50;;;;;;5109686;27;46333;-79
2022/05/13 01:41:35;;;;;;;0.70;0.43;;;20.40;67.50;;;;;;5113248;27;46213;-79
2022/05/13 01:44:02;;;;;;;1.60;0.50;;;20.40;67.60;;;;;;5110648;27;47849;-79
2022/05/13 01:46:29;;;;;;;0.85;0.60;;;20.40;67.70;;;;;;5107044;27;45203;-79
2022/05/13 01:48:56;;;;;;;1.60;0.70;;;20.40;67.70;;;;;;5108605;27;45231;-78
2022/05/13 01:51:24;;;;;;;0.75;0.50;;;20.40;67.80;;;;;;5108512;27;45406;-79
2022/05/13 01:53:51;;;;;;;1.10;0.60;;;20.40;67.80;;;;;;5109225;27;47418;-79
2022/05/13 01:56:19;;;;;;;0.95;0.57;;;20.40;67.80;;;;;;5106581;27;45223;-78
2022/05/13 01:58:46;;;;;;;2.20;0.80;;;20.40;68.50;;;;;;5107361;27;45181;-79
2022/05/13 02:01:13;;;;;;;2.33;0.63;;;20.40;67.60;;;;;;5113969;27;45421;-79
2022/05/13 02:03:45;;;;;;;1.17;0.60;;;20.40;67.80;;;;;;5104430;27;47933;-79
2022/05/13 02:06:14;;;;;;;2.20;0.82;;;20.40;67.70;;;;;;5105179;27;45301;-78
2022/05/13 02:08:41;;;;;;;0.80;0.50;;;20.40;67.70;;;;;;5108150;27;45163;-78
2022/05/13 02:11:09;;;;;;;1.35;0.55;;;20.40;67.60;;;;;;5109756;27;45193;-78
2022/05/13 02:13:37;;;;;;;1.55;0.60;;;20.40;67.70;;;;;;5111750;27;46387;-78
2022/05/13 02:16:05;;;;;;;4.75;0.90;;;20.40;67.50;;;;;;5106200;27;45324;-78
2022/05/13 02:18:32;;;;;;;1.50;0.73;;;20.40;67.20;;;;;;5108886;27;45315;-79
2022/05/13 02:20:59;;;;;;;1.25;0.60;;;20.40;67.40;;;;;;5109155;27;45385;-79
2022/05/13 02:23:26;;;;;;;0.50;0.50;;;20.40;67.20;;;;;;5108936;27;47509;-78
2022/05/13 02:25:59;;;;;;;1.25;0.50;;;20.40;67.00;;;;;;5104344;27;45195;-78
2022/05/13 02:28:26;;;;;;;1.08;0.68;;;20.40;66.70;;;;;;5103636;27;45286;-79
2022/05/13 02:30:54;;;;;;;1.23;0.70;;;20.40;66.90;;;;;;5112712;27;45273;-79
2022/05/13 02:33:21;;;;;;;2.42;0.60;;;20.40;66.80;;;;;;5107534;27;45333;-79
2022/05/13 02:35:48;;;;;;;1.00;0.57;;;20.40;67.00;;;;;;5108754;27;45415;-79
2022/05/13 02:38:16;;;;;;;1.20;0.60;;;20.40;67.00;;;;;;5107522;27;45168;-79
2022/05/13 02:43:27;;;;;;;1.63;0.57;;;20.40;67.20;;;;;;5098801;27;45782;-79
2022/05/13 02:45:55;;;;;;;1.13;0.52;;;20.40;67.10;;;;;;5108133;27;45301;-78
2022/05/13 02:48:22;;;;;;;1.05;0.50;;;20.40;67.10;;;;;;5102890;27;45291;-78
2022/05/13 02:50:49;;;;;;;3.30;0.73;;;20.40;67.30;;;;;;5116207;27;45116;-79
2022/05/13 02:53:16;;;;;;;1.27;0.60;;;20.40;67.10;;;;;;5107097;27;46067;-78
2022/05/13 02:55:43;;;;;;;1.58;0.60;;;20.40;67.20;;;;;;5105340;27;45177;-78
2022/05/13 02:58:10;;;;;;;1.88;0.70;;;20.40;67.10;;;;;;5101591;27;45466;-79
2022/05/13 03:00:37;;;;;;;1.27;0.57;;;20.40;67.30;;;;;;5107003;27;45556;-78
2022/05/13 03:03:06;;;;;;;2.55;0.70;;;20.40;67.30;;;;;;5106278;27;46206;-79
2022/05/13 03:05:34;;;;;;;1.02;0.60;;;20.40;67.30;;;;;;5107015;27;45315;-79
2022/05/13 03:08:01;;;;;;;1.40;0.65;;;20.40;67.10;;;;;;5107025;27;45323;-79
2022/05/13 03:10:29;;;;;;;1.58;0.60;;;20.40;67.00;;;;;;5106493;27;45524;-79
2022/05/13 03:12:56;;;;;;;1.05;0.40;;;20.40;66.90;;;;;;5106277;27;48151;-78
2022/05/13 03:15:24;;;;;;;0.70;0.40;;;20.40;66.90;;;;;;5106580;27;45362;-78
2022/05/13 03:17:51;;;;;;;1.40;0.73;;;20.40;66.80;;;;;;5109533;27;45340;-79
2022/05/13 03:20:21;;;;;;;0.95;0.52;;;20.40;66.60;;;;;;5104661;27;45659;-78
2022/05/13 03:22:49;;;;;;;1.48;0.50;;;20.40;66.60;;;;;;5104973;27;45393;-78
2022/05/13 03:25:16;;;;;;;1.77;0.60;;;20.40;66.40;;;;;;5106334;27;45230;-78
2022/05/13 03:27:43;;;;;;;0.90;0.50;;;20.40;66.40;;;;;;5105947;27;45175;-79
2022/05/13 03:30:13;;;;;;;1.05;0.55;;;20.40;66.50;;;;;;5105376;27;45330;-79
2022/05/13 03:32:40;;;;;;;0.95;0.70;;;20.40;66.60;;;;;;5102358;27;48389;-79
2022/05/13 03:35:09;;;;;;;1.27;0.60;;;20.40;66.70;;;;;;5105200;27;45578;-79
2022/05/13 03:37:37;;;;;;;1.73;0.70;;;20.40;66.80;;;;;;5104271;27;45206;-78
2022/05/13 03:40:05;;;;;;;1.10;0.65;;;20.40;67.70;;;;;;5104274;27;45438;-79
2022/05/13 03:42:32;;;;;;;1.20;0.70;;;20.40;67.00;;;;;;5102965;27;47386;-78
2022/05/13 03:44:58;;;;;;;1.10;0.50;;;20.40;66.80;;;;;;5105834;27;45210;-78
2022/05/13 03:47:25;;;;;;;0.75;0.45;;;20.40;66.70;;;;;;5104428;27;45261;-78
2022/05/13 03:49:52;;;;;;;1.13;0.45;;;20.40;66.80;;;;;;5107700;27;45202;-78
2022/05/13 03:52:19;;;;;;;1.17;0.40;;;20.40;66.80;;;;;;5104446;27;48318;-78
2022/05/13 03:54:47;;;;;;;2.60;0.68;;;20.40;66.80;;;;;;5102925;27;45247;-79
2022/05/13 03:57:14;;;;;;;0.90;0.50;;;20.40;66.80;;;;;;5106698;27;45191;-78
2022/05/13 03:59:41;;;;;;;1.55;0.60;;;20.40;66.80;;;;;;5103009;27;45355;-78
2022/05/13 04:02:08;;;;;;;0.88;0.50;;;20.40;66.80;;;;;;5105003;27;46198;-78
2022/05/13 04:08:56;;;;;;;1.08;0.40;;;20.40;66.80;;;;;;5106134;27;45617;-78
2022/05/13 04:10:10;;;;;;;0.98;0.40;;;20.40;66.60;;;;;;5107373;27;45270;-79
2022/05/13 04:18:05;;;;;;;1.05;0.60;;;20.40;66.40;;;;;;5104795;27;45333;-78
2022/05/13 04:20:34;;;;;;;0.95;0.43;;;20.40;66.40;;;;;;5106205;27;46550;-79
2022/05/13 04:23:01;;;;;;;2.00;0.60;;;20.40;66.30;;;;;;5103527;27;48427;-78
2022/05/13 04:25:29;;;;;;;0.80;0.40;;;20.40;66.40;;;;;;5107192;27;45301;-79
2022/05/13 04:27:56;;;;;;;1.88;0.63;;;20.40;66.40;;;;;;5104571;27;45386;-78
2022/05/13 04:30:22;;;;;;;1.33;0.50;;;20.40;66.70;;;;;;5105146;27;45757;-79
2022/05/13 04:32:49;;;;;;;2.42;0.50;;;20.40;66.60;;;;;;5110562;27;47933;-79
2022/05/13 04:35:16;;;;;;;1.17;0.63;;;20.40;66.50;;;;;;5107213;27;45539;-78
2022/05/13 04:37:44;;;;;;;0.50;0.40;;;20.60;66.50;;;;;;5107315;27;45324;-78
2022/05/13 04:40:13;;;;;;;1.17;0.40;;;20.40;66.40;;;;;;5097918;27;45629;-78
2022/05/13 04:42:53;;;;;;;2.35;0.60;;;20.40;66.10;;;;;;5101401;27;46180;-78
2022/05/13 04:45:24;;;;;;;1.48;0.60;;;20.40;65.60;;;;;;5098172;27;45171;-79
2022/05/13 04:50:40;;;;;;;0.77;0.30;;;20.40;65.90;;;;;;5096022;27;45550;-79
2022/05/13 04:53:08;;;;;;;1.80;0.50;;;20.40;66.10;;;;;;5100844;27;46497;-78
2022/05/13 04:55:35;;;;;;;2.53;0.73;;;20.40;65.70;;;;;;5105047;27;45581;-79
2022/05/13 04:58:05;;;;;;;1.33;0.60;;;20.40;65.70;;;;;;5096688;27;45682;-79
2022/05/13 05:00:32;;;;;;;1.45;0.63;;;20.40;65.40;;;;;;5091504;27;45460;-79
2022/05/13 05:02:59;;;;;;;3.55;0.80;;;20.40;65.20;;;;;;5101963;27;46610;-78
2022/05/13 05:05:27;;;;;;;1.23;0.50;;;20.40;65.20;;;;;;5108287;27;45223;-78
2022/05/13 05:07:54;;;;;;;1.00;0.50;;;20.40;65.10;;;;;;5104674;27;45384;-78
2022/05/13 05:10:21;;;;;;;0.98;0.43;;;20.40;65.00;;;;;;5100551;27;45138;-78
2022/05/13 05:12:49;;;;;;;1.13;0.60;;;20.40;65.00;;;;;;5105751;27;46187;-78
2022/05/13 05:15:17;;;;;;;2.63;0.70;;;20.40;65.00;;;;;;5105243;27;45393;-78
2022/05/13 05:17:44;;;;;;;2.35;0.60;;;20.40;65.00;;;;;;5105271;27;45274;-79
2022/05/13 05:20:12;;;;;;;2.63;0.60;;;20.40;65.00;;;;;;5106120;27;45192;-78
2022/05/13 05:22:39;;;;;;;1.15;0.52;;;20.40;65.10;;;;;;5102160;27;46230;-78
2022/05/13 05:25:07;;;;;;;0.60;0.40;;;20.40;65.00;;;;;;5105804;27;45274;-78
2022/05/13 05:27:35;;;;;;;1.98;0.52;;;20.40;65.20;;;;;;5105010;27;45303;-78
2022/05/13 05:30:04;;;;;;;1.60;0.50;;;20.40;65.20;;;;;;5104005;27;45285;-78
2022/05/13 05:32:32;;;;;;;2.63;0.82;;;20.40;65.40;;;;;;5106654;27;45214;-78
2022/05/13 05:34:59;;;;;;;1.58;0.80;;;20.40;65.30;;;;;;5104547;27;45393;-78
2022/05/13 05:37:26;;;;;;;2.15;0.60;;;20.40;65.60;;;;;;5108478;27;45485;-78
2022/05/13 05:39:52;;;;;;;1.52;0.73;;;20.40;65.30;;;;;;5102648;27;45527;-79
2022/05/13 05:42:19;;;;;;;1.13;0.65;;;20.40;65.40;;;;;;5097459;27;46463;-79
2022/05/13 05:44:46;;;;;;;1.95;0.80;;;20.40;65.70;;;;;;5107235;27;46242;-78
2022/05/13 05:47:13;;;;;;;2.05;0.63;;;20.40;65.70;;;;;;5102091;27;45199;-78
2022/05/13 05:49:41;;;;;;;1.38;0.60;;;20.40;65.70;;;;;;5103478;27;45143;-78
2022/05/13 05:52:09;;;;;;;0.70;0.50;;;20.30;65.40;;;;;;5105393;27;45358;-78
2022/05/13 05:57:22;;;;;;;1.17;0.65;;;20.30;65.60;;;;;;5104981;27;45386;-78
2022/05/13 05:59:49;;;;;;;1.30;0.57;;;20.30;65.40;;;;;;5109126;27;45266;-78
2022/05/13 06:02:17;;;;;;;1.65;0.60;;;20.40;65.50;;;;;;5100097;27;46045;-79
2022/05/13 06:04:46;;;;;;;1.48;0.45;;;20.30;65.30;;;;;;5103826;27;45971;-78
2022/05/13 06:07:15;;;;;;;1.65;0.80;;;20.40;65.40;;;;;;5104613;27;45359;-79
2022/05/13 06:09:43;;;;;;;1.08;0.43;;;20.40;65.40;;;;;;5105717;27;45454;-79
2022/05/13 06:12:12;;;;;;;1.83;0.80;;;20.40;65.20;;;;;;5106743;27;45613;-78
2022/05/13 06:14:39;;;;;;;2.35;0.82;;;20.40;65.70;;;;;;5106024;27;45314;-79
2022/05/13 06:17:06;;;;;;;1.58;0.47;;;20.40;65.00;;;;;;5106114;27;45247;-78
2022/05/13 06:19:34;;;;;;;2.03;0.60;;;20.40;64.80;;;;;;5109346;27;45342;-78
2022/05/13 06:22:02;;;;;;;1.80;0.68;;;20.40;64.90;;;;;;5105415;27;46408;-78
2022/05/13 06:24:29;;;;;;;1.20;0.60;;;20.40;65.00;;;;;;5109539;27;45219;-78
2022/05/13 06:26:56;;;;;;;1.85;0.70;;;20.40;65.00;;;;;;5108587;27;45189;-78
2022/05/13 06:29:25;;;;;;;2.10;0.70;;;20.40;65.00;;;;;;5106461;27;45438;-78
2022/05/13 06:31:53;;;;;;;1.17;0.60;;;20.40;65.00;;;;;;5103811;27;45303;-78
2022/05/13 06:34:21;;;;;;;2.00;0.50;;;20.50;65.20;;;;;;5107335;27;46663;-78
2022/05/13 06:36:50;;;;;;;1.67;0.60;;;20.40;65.10;;;;;;5103294;27;45347;-78
2022/05/13 06:39:18;;;;;;;1.88;0.70;;;20.40;65.20;;;;;;5108219;27;45411;-78
2022/05/13 06:41:45;;;;;;;2.58;0.82;;;20.40;65.20;;;;;;5108716;27;46612;-78
2022/05/13 06:44:13;;;;;;;1.00;0.60;;;20.40;65.10;;;;;;5111413;27;45257;-76
2022/05/13 06:46:40;;;;;;;1.67;0.70;;;20.40;65.00;;;;;;5107095;27;45288;-78
2022/05/13 06:49:07;;;;;;;0.50;0.40;;;20.40;65.00;;;;;;5106248;27;45288;-78
2022/05/13 06:51:35;;;;;;;1.33;0.63;;;20.40;65.10;;;;;;5108892;27;46244;-79
2022/05/13 06:54:04;;;;;;;1.08;0.50;;;20.40;65.00;;;;;;5109401;27;45175;-79
2022/05/13 06:56:33;;;;;;;1.75;0.70;;;20.40;64.90;;;;;;5095799;27;45831;-78
2022/05/13 06:59:00;;;;;;;1.70;0.63;;;20.40;65.00;;;;;;5108429;27;45513;-81
2022/05/13 07:01:27;;;;;;;2.50;0.68;;;20.40;64.90;;;;;;5108308;27;46242;-79
2022/05/13 07:03:54;;;;;;;3.20;0.70;;;20.40;65.20;;;;;;5105565;27;46008;-79
2022/05/13 07:06:21;;;;;;;1.02;0.70;;;20.40;65.60;;;;;;5109544;27;45322;-79
2022/05/13 07:08:49;;;;;;;3.90;0.60;;;20.40;65.40;;;;;;5107164;27;45271;-79
2022/05/13 07:11:17;;;;;;;1.13;0.55;;;20.40;65.10;;;;;;5108858;27;47412;-79
2022/05/13 07:13:45;;;;;;;1.88;0.68;;;20.50;65.30;;;;;;5107906;27;45196;-79
2022/05/13 07:16:13;;;;;;;5.43;0.80;;;20.50;65.20;;;;;;5103606;27;45363;-79
2022/05/13 07:18:42;;;;;;;0.95;0.50;;;20.40;65.20;;;;;;5108140;27;45234;-79
2022/05/13 07:21:09;;;;;;;3.35;0.50;;;20.40;65.20;;;;;;5104282;27;46150;-79
2022/05/13 07:23:36;;;;;;;3.70;0.63;;;20.40;65.10;;;;;;5105289;27;45884;-79
2022/05/13 07:26:03;;;;;;;2.58;0.80;;;20.40;65.20;;;;;;5108734;27;45433;-79
2022/05/13 07:28:30;;;;;;;1.65;0.50;;;20.40;65.20;;;;;;5108741;27;45227;-79
2022/05/13 07:31:00;;;;;;;1.10;0.50;;;20.40;65.20;;;;;;5105326;27;47422;-79
2022/05/13 07:33:29;;;;;;;2.17;0.73;;;20.40;65.00;;;;;;5104067;27;45235;-79
2022/05/13 07:35:56;;;;;;;1.05;0.63;;;20.40;65.20;;;;;;5107592;27;45149;-79
2022/05/13 07:38:24;;;;;;;1.92;0.47;;;20.40;65.10;;;;;;5106866;27;45579;-79
2022/05/13 07:43:35;;;;;;;4.75;0.90;;;20.40;65.60;;;;;;5098071;27;45233;-80
2022/05/13 07:46:06;;;;;;;1.45;0.65;;;20.40;65.60;;;;;;5107772;27;45278;-79
2022/05/13 07:48:33;;;;;;;2.20;0.52;;;20.40;66.50;;;;;;5108039;27;45222;-79
2022/05/13 07:51:00;;;;;;;2.13;0.70;;;20.40;65.40;;;;;;5106805;27;45343;-79
2022/05/13 07:53:26;;;;;;;3.53;0.60;;;20.40;65.20;;;;;;5104510;27;45393;-79
2022/05/13 07:55:54;;;;;;;3.42;0.93;;;20.40;65.00;;;;;;5105210;27;45232;-79
2022/05/13 07:58:21;;;;;;;1.95;0.57;;;20.40;64.80;;;;;;5098517;27;45220;-79
2022/05/13 08:00:48;;;;;;;0.90;0.55;;;20.40;64.70;;;;;;5104024;27;46561;-79
2022/05/13 08:03:18;;;;;;;2.40;0.70;;;20.40;64.80;;;;;;5106567;27;45148;-79
2022/05/13 08:05:47;;;;;;;1.02;0.50;;;20.40;64.70;;;;;;5101695;27;45272;-79
2022/05/13 08:08:17;;;;;;;1.52;0.70;;;20.40;64.80;;;;;;5103140;27;45345;-79
2022/05/13 08:10:46;;;;;;;3.40;0.70;;;20.40;64.70;;;;;;5105939;27;47107;-79
2022/05/13 08:13:13;;;;;;;1.42;0.68;;;20.40;64.60;;;;;;5102682;27;45224;-79
2022/05/13 08:15:42;;;;;;;1.85;0.65;;;20.40;64.90;;;;;;5106191;27;45317;-79
2022/05/13 08:18:09;;;;;;;2.03;0.85;;;20.40;64.90;;;;;;5104706;27;45287;-79
2022/05/13 08:20:37;;;;;;;1.00;0.63;;;20.40;65.00;;;;;;5102824;27;46606;-79
2022/05/13 08:23:04;;;;;;;1.27;0.50;;;20.40;64.90;;;;;;5097719;27;45247;-79
2022/05/13 08:25:31;;;;;;;2.15;0.70;;;20.40;64.90;;;;;;5106684;27;45251;-79
2022/05/13 08:27:59;;;;;;;1.98;0.80;;;20.40;64.90;;;;;;5105027;27;45534;-79
2022/05/13 08:30:26;;;;;;;1.35;0.60;;;20.40;64.80;;;;;;5106543;27;46407;-79
2022/05/13 08:32:54;;;;;;;1.45;0.60;;;20.40;64.80;;;;;;5106733;27;45149;-78
2022/05/13 08:35:21;;;;;;;1.58;0.70;;;20.40;64.80;;;;;;5096627;27;45267;-78
2022/05/13 08:37:52;;;;;;;2.05;1.00;;;20.40;64.70;;;;;;5110290;27;45645;-79
2022/05/13 08:40:26;;;;;;;0.77;0.52;;;20.40;64.90;;;;;;5102948;27;47076;-79
2022/05/13 08:42:54;;;;;;;1.30;0.65;;;20.40;64.90;;;;;;5107144;27;45506;-79
2022/05/13 08:45:22;;;;;;;2.22;0.60;;;20.40;65.00;;;;;;5105878;27;45343;-79
2022/05/13 08:47:52;;;;;;;1.90;0.77;;;20.40;64.90;;;;;;5106161;27;45374;-79
2022/05/13 08:50:24;;;;;;;2.40;0.90;;;20.40;64.90;;;;;;5107334;27;47089;-79
2022/05/13 08:53:10;;;;;;;3.45;0.93;;;20.40;64.60;;;;;;5107349;27;45325;-79
2022/05/13 08:55:42;;;;;;;2.65;0.82;;;20.40;64.50;;;;;;5101536;27;45384;-79
2022/05/13 08:58:14;;;;;;;2.08;0.70;;;20.50;64.70;;;;;;5098784;27;45285;-79
2022/05/13 09:00:44;;;;;;;3.90;0.90;;;20.50;64.40;;;;;;5107194;27;46297;-79
2022/05/13 09:03:29;;;;;;;2.13;0.60;;;20.50;64.50;;;;;;5105310;27;45391;-79
2022/05/13 09:06:05;;;;;;;1.88;0.90;;;20.50;64.30;;;;;;5107226;27;45288;-79
2022/05/13 09:08:34;;;;;;;0.90;0.60;;;20.50;64.50;;;;;;5100519;27;45156;-79
2022/05/13 09:11:12;;;;;;;1.40;0.47;;;20.40;64.40;;;;;;5105450;27;45590;-79
2022/05/13 09:13:48;;;;;;;1.45;0.50;;;20.40;64.40;;;;;;5102848;27;45314;-79
2022/05/13 09:16:23;;;;;;;1.00;0.50;;;20.40;64.70;;;;;;5104672;27;45571;-80
2022/05/13 09:18:58;;;;;;;1.45;0.68;;;20.40;64.60;;;;;;5103500;27;45315;-79
2022/05/13 09:21:25;;;;;;;1.67;0.50;;;20.40;64.50;;;;;;5111392;27;45345;-79
2022/05/13 09:23:53;;;;;;;1.42;0.50;;;20.40;64.70;;;;;;5106422;27;45501;-80
2022/05/13 09:26:22;;;;;;;2.10;0.80;;;20.40;64.70;;;;;;5105258;27;45128;-79
2022/05/13 09:29:07;;;;;;;3.13;0.90;;;20.40;64.60;;;;;;5103185;27;45265;-79
2022/05/13 09:31:37;;;;;;;2.97;0.80;;;20.40;64.50;;;;;;5104357;27;46436;-80
2022/05/13 09:34:13;;;;;;;1.65;0.60;;;20.40;64.60;;;;;;5109295;27;45302;-79
2022/05/13 09:36:39;;;;;;;1.92;0.70;;;20.40;64.70;;;;;;5108566;27;45283;-79
2022/05/13 09:39:25;;;;;;;3.00;0.80;;;20.40;64.70;;;;;;5109062;27;45297;-80
2022/05/13 09:41:53;;;;;;;2.00;0.70;;;20.40;64.60;;;;;;5104571;27;47972;-79
2022/05/13 09:44:22;;;;;;;1.92;0.70;;;20.40;64.40;;;;;;5110623;27;45271;-79
2022/05/13 09:46:51;;;;;;;1.33;0.70;;;20.40;64.40;;;;;;5106594;27;45123;-79
2022/05/13 09:49:28;;;;;;;1.67;0.73;;;20.50;64.30;;;;;;5107781;27;45282;-79
2022/05/13 09:51:59;;;;;;;2.83;0.70;;;20.40;64.00;;;;;;5106272;27;46295;-79
2022/05/13 09:54:31;;;;;;;2.83;0.75;;;20.50;63.90;;;;;;5105356;27;45189;-79
2022/05/13 09:57:08;;;;;;;1.05;0.47;;;20.50;63.90;;;;;;5105854;27;45224;-79
2022/05/13 09:59:38;;;;;;;1.08;0.70;;;20.50;64.00;;;;;;5108947;27;45396;-79
2022/05/13 10:02:20;;;;;;;1.58;0.80;;;20.40;63.80;;;;;;5107410;27;46357;-79
2022/05/13 10:04:52;;;;;;;1.10;0.43;;;20.50;63.70;;;;;;5105622;27;45838;-79
2022/05/13 10:07:19;;;;;;;2.22;0.73;;;20.50;63.90;;;;;;5126483;27;45257;-79
2022/05/13 10:15:27;;;;;;;1.70;0.50;;;20.40;63.60;;;;;;5102784;27;45542;-79
2022/05/13 10:18:00;;;;;;;1.00;0.68;;;20.40;63.70;;;;;;5106056;27;45280;-79
2022/05/13 10:20:31;;;;;;;1.10;0.65;;;20.40;63.60;;;;;;5101214;27;45176;-79
2022/05/13 10:23:05;;;;;;;2.10;0.80;;;20.40;63.60;;;;;;5110239;27;47047;-79
2022/05/13 10:25:40;;;;;;;1.00;0.50;;;20.40;63.70;;;;;;5107665;27;45347;-79
2022/05/13 10:28:11;;;;;;;2.28;0.70;;;20.40;63.60;;;;;;5097049;27;45309;-79
2022/05/13 10:30:45;;;;;;;1.45;0.70;;;20.40;63.50;;;;;;5109081;27;45204;-79
2022/05/13 10:33:19;;;;;;;1.70;0.32;;;20.40;63.60;;;;;;5106595;27;47203;-79
2022/05/13 10:35:52;;;;;;;1.40;0.70;;;20.40;63.20;;;;;;5108295;27;45081;-79
2022/05/13 10:38:26;;;;;;;0.75;0.50;;;20.40;63.90;;;;;;5105127;27;45157;-79
2022/05/13 10:40:57;;;;;;;1.48;0.50;;;20.40;64.00;;;;;;5097097;27;45091;-79
2022/05/13 10:43:33;;;;;;;1.60;0.40;;;20.40;64.20;;;;;;5100046;27;47915;-79
2022/05/13 10:46:15;;;;;;;1.38;0.50;;;20.40;64.10;;;;;;5106644;27;45340;-79
2022/05/13 10:48:42;;;;;;;1.60;0.60;;;20.40;64.20;;;;;;5105957;27;45463;-79
2022/05/13 10:51:17;;;;;;;1.00;0.22;;;20.40;64.10;;;;;;5108366;27;45314;-79
2022/05/13 10:54:19;;;;;;;1.10;0.50;;;20.40;64.20;;;;;;5093364;27;47842;-79
2022/05/13 10:56:54;;;;;;;1.45;0.50;;;20.40;64.00;;;;;;5105195;27;45109;-79
2022/05/13 10:59:33;;;;;;;2.00;0.60;;;20.40;64.20;;;;;;5105232;27;45396;-79
2022/05/13 11:02:13;;;;;;;3.10;0.80;;;20.40;64.30;;;;;;5102903;27;45225;-79
2022/05/13 11:04:46;;;;;;;1.73;1.00;;;20.40;64.20;;;;;;5103880;27;47836;-79
2022/05/13 11:07:21;;;;;;;1.67;0.63;;;20.40;64.30;;;;;;5112558;27;45345;-79
2022/05/13 11:09:53;;;;;;;2.47;1.20;;;20.40;64.10;;;;;;5107390;27;45452;-79
2022/05/13 11:12:31;;;;;;;2.97;1.15;;;20.40;64.10;;;;;;5104635;27;45396;-79
2022/05/13 11:15:08;;;;;;;1.40;0.88;;;20.40;64.00;;;;;;5107754;27;46280;-79
2022/05/13 11:17:43;;;;;;;1.77;1.10;;;20.40;64.00;;;;;;5102714;27;45520;-79
2022/05/13 11:20:23;;;;;;;3.38;1.38;;;20.40;64.10;;;;;;5107874;27;45325;-79
2022/05/13 11:22:59;;;;;;;1.80;1.02;;;20.40;64.00;;;;;;5106022;27;45431;-79
2022/05/13 11:25:54;;;;;;;1.70;1.30;;;20.40;63.90;;;;;;5101067;27;45218;-79
2022/05/13 11:28:43;;;;;;;2.80;1.08;;;20.40;64.00;;;;;;5106487;27;45286;-79
2022/05/13 11:31:24;;;;;;;2.13;1.10;;;20.40;64.00;;;;;;5102981;27;45249;-79
2022/05/13 11:33:58;;;;;;;4.32;1.00;;;20.40;64.20;;;;;;5100503;27;45533;-79
2022/05/13 11:36:36;;;;;;;2.20;1.05;;;20.40;64.20;;;;;;5100615;27;46466;-79
2022/05/13 11:39:15;;;;;;;3.90;1.15;;;20.40;64.00;;;;;;5095643;27;45180;-78
2022/05/13 11:41:51;;;;;;;2.17;1.20;;;20.40;63.80;;;;;;5102248;27;45603;-78
2022/05/13 11:44:26;;;;;;;1.95;1.08;;;20.40;63.80;;;;;;5104915;27;45188;-78
2022/05/13 11:46:59;;;;;;;2.67;1.20;;;20.40;63.70;;;;;;5105761;27;45392;-78
2022/05/13 11:49:31;;;;;;;1.98;1.10;;;20.40;63.80;;;;;;5100529;27;45627;-79
2022/05/13 11:52:19;;;;;;;1.98;1.10;;;20.40;63.80;;;;;;5104752;27;45463;-79
2022/05/13 11:54:46;;;;;;;1.80;1.15;;;20.40;64.00;;;;;;5107064;27;45423;-78
2022/05/13 11:57:23;;;;;;;1.50;0.93;;;20.40;64.10;;;;;;5104384;27;47909;-79
2022/05/13 11:59:53;;;;;;;1.23;0.90;;;20.40;63.70;;;;;;5104163;27;45247;-79
2022/05/13 12:02:48;;;;;;;2.15;1.00;;;20.40;63.80;;;;;;5102091;27;45232;-79
2022/05/13 12:05:35;;;;;;;2.45;0.82;;;20.40;64.00;;;;;;5105418;27;45294;-78
2022/05/13 12:08:22;;;;;;;3.33;1.00;;;20.50;63.90;;;;;;5101748;27;46932;-78
2022/05/13 12:11:31;;;;;;;1.67;0.75;;;20.50;64.00;;;;;;5105952;27;45333;-78
2022/05/13 12:14:10;;;;;;;1.45;0.70;;;20.50;64.00;;;;;;5100360;27;45375;-79
2022/05/13 12:16:46;;;;;;;1.98;0.70;;;20.50;63.90;;;;;;5107086;27;45471;-78
2022/05/13 12:19:32;;;;;;;1.60;0.90;;;20.50;63.90;;;;;;5103412;27;46697;-78
2022/05/13 12:22:06;;;;;;;1.05;0.50;;;20.50;63.60;;;;;;5103379;27;45188;-78
2022/05/13 12:24:55;;;;;;;1.40;0.90;;;20.50;63.80;;;;;;5104145;27;45719;-78
2022/05/13 12:27:35;;;;;;;1.80;0.80;;;20.50;63.60;;;;;;5099531;27;45447;-78
2022/05/13 12:30:10;;;;;;;1.70;0.95;;;20.50;63.60;;;;;;5104928;27;45473;-78
2022/05/13 12:32:42;;;;;;;1.48;0.65;;;20.50;63.80;;;;;;5103095;27;45873;-79
2022/05/13 12:38:12;;;;;;;1.95;0.80;;;20.50;63.00;;;;;;5104030;27;45316;-79
2022/05/13 12:40:58;;;;;;;1.10;0.60;;;20.50;62.80;;;;;;5106855;27;48457;-79
2022/05/13 12:43:45;;;;;;;2.13;0.60;;;20.60;62.80;;;;;;5106585;27;45296;-79
2022/05/13 12:46:18;;;;;;;1.17;0.50;;;20.60;62.70;;;;;;5104360;27;45286;-79
2022/05/13 12:49:05;;;;;;;1.58;0.50;;;20.60;62.70;;;;;;5094944;27;45276;-78
2022/05/13 12:51:47;;;;;;;1.70;0.60;;;20.60;62.60;;;;;;5101939;27;46188;-78
2022/05/13 12:54:18;;;;;;;0.98;0.50;;;20.50;62.60;;;;;;5105911;27;45411;-79
2022/05/13 12:56:50;;;;;;;1.73;0.70;;;20.50;62.60;;;;;;5103233;27;45247;-78
2022/05/13 12:59:20;;;;;;;1.38;0.50;;;20.50;62.60;;;;;;5100827;27;45545;-77
2022/05/13 13:01:51;;;;;;;1.63;0.60;;;20.50;62.50;;;;;;5096649;27;45982;-78
2022/05/13 13:04:23;;;;;;;1.02;0.40;;;20.50;62.40;;;;;;5103163;27;45463;-78
2022/05/13 13:06:51;;;;;;;2.38;0.63;;;20.50;62.30;;;;;;5103751;27;45281;-78
2022/05/13 13:09:31;;;;;;;0.85;0.60;;;20.50;62.10;;;;;;5106046;27;45604;-78
2022/05/13 13:12:04;;;;;;;2.72;0.60;;;20.50;62.10;;;;;;5101432;27;46315;-78
2022/05/13 13:14:41;;;;;;;1.45;0.40;;;20.50;62.10;;;;;;5106089;27;45915;-77
2022/05/13 13:17:19;;;;;;;0.65;0.40;;;20.50;62.10;;;;;;5110980;27;45327;-78
2022/05/13 13:19:48;;;;;;;1.90;0.40;;;20.50;62.10;;;;;;5108705;27;45351;-78
2022/05/13 13:22:20;;;;;;;1.27;0.60;;;20.50;62.40;;;;;;5104329;27;45269;-78
2022/05/13 13:24:47;;;;;;;1.33;0.50;;;20.50;62.50;;;;;;5102464;27;46582;-78
2022/05/13 13:27:17;;;;;;;4.47;0.75;;;20.50;62.50;;;;;;5109210;27;45394;-78
2022/05/13 13:29:46;;;;;;;1.08;0.60;;;20.50;62.40;;;;;;5109399;27;45334;-78
2022/05/13 13:32:15;;;;;;;1.23;0.50;;;20.50;62.40;;;;;;5090150;27;46181;-78
2022/05/13 13:34:52;;;;;;;2.05;0.52;;;20.50;62.40;;;;;;5105480;27;45257;-78
2022/05/13 13:37:21;;;;;;;1.67;0.55;;;20.50;62.50;;;;;;5111401;27;45228;-78